sensor_id;sensor_type;location;lat;lon;timestamp;temperature;humidity
70421;SHT31;57848;51.938;15.520;2022-08-21T00:00:44;17.98;90.53
70421;SHT31;57848;51.938;15.520;2022-08-21T00:03:10;18.04;90.31
70421;SHT31;57848;51.938;15.520;2022-08-21T00:05:42;18.00;90.40
70421;SHT31;57848;51.938;15.520;2022-08-21T00:08:08;18.04;90.34
70421;SHT31;57848;51.938;15.520;2022-08-21T00:10:34;18.04;90.49
70421;SHT31;57848;51.938;15.520;2022-08-21T00:13:04;18.04;90.55
70421;SHT31;57848;51.938;15.520;2022-08-21T00:15:31;18.06;90.60
70421;SHT31;57848;51.938;15.520;2022-08-21T00:17:56;18.06;90.52
70421;SHT31;57848;51.938;15.520;2022-08-21T00:20:23;18.08;90.52
70421;SHT31;57848;51.938;15.520;2022-08-21T00:22:49;18.08;90.67
70421;SHT31;57848;51.938;15.520;2022-08-21T00:25:16;18.08;90.60
70421;SHT31;57848;51.938;15.520;2022-08-21T00:27:42;18.11;90.65
70421;SHT31;57848;51.938;15.520;2022-08-21T00:30:08;18.10;90.55
70421;SHT31;57848;51.938;15.520;2022-08-21T00:32:37;18.13;90.50
70421;SHT31;57848;51.938;15.520;2022-08-21T00:35:04;18.10;90.69
70421;SHT31;57848;51.938;15.520;2022-08-21T00:37:30;18.14;90.49
70421;SHT31;57848;51.938;15.520;2022-08-21T00:39:55;18.11;90.36
70421;SHT31;57848;51.938;15.520;2022-08-21T00:42:21;18.16;90.32
70421;SHT31;57848;51.938;15.520;2022-08-21T00:44:47;18.20;89.83
70421;SHT31;57848;51.938;15.520;2022-08-21T00:47:13;18.10;90.13
70421;SHT31;57848;51.938;15.520;2022-08-21T00:49:39;18.10;90.04
70421;SHT31;57848;51.938;15.520;2022-08-21T00:52:07;18.13;90.20
70421;SHT31;57848;51.938;15.520;2022-08-21T00:54:34;18.06;90.19
70421;SHT31;57848;51.938;15.520;2022-08-21T00:57:05;18.07;90.23
70421;SHT31;57848;51.938;15.520;2022-08-21T00:59:35;18.10;90.39
70421;SHT31;57848;51.938;15.520;2022-08-21T01:02:02;18.17;89.78
70421;SHT31;57848;51.938;15.520;2022-08-21T01:04:27;18.11;89.94
70421;SHT31;57848;51.938;15.520;2022-08-21T01:06:53;18.11;90.03
70421;SHT31;57848;51.938;15.520;2022-08-21T01:09:20;18.07;90.22
70421;SHT31;57848;51.938;15.520;2022-08-21T01:11:46;18.10;90.05
70421;SHT31;57848;51.938;15.520;2022-08-21T01:14:12;18.06;89.85
70421;SHT31;57848;51.938;15.520;2022-08-21T01:16:45;18.08;90.09
70421;SHT31;57848;51.938;15.520;2022-08-21T01:19:11;18.06;89.93
70421;SHT31;57848;51.938;15.520;2022-08-21T01:21:37;18.03;89.96
70421;SHT31;57848;51.938;15.520;2022-08-21T01:24:02;18.01;90.01
70421;SHT31;57848;51.938;15.520;2022-08-21T01:26:31;18.07;90.16
70421;SHT31;57848;51.938;15.520;2022-08-21T01:29:03;18.08;90.25
70421;SHT31;57848;51.938;15.520;2022-08-21T01:31:30;18.04;90.63
70421;SHT31;57848;51.938;15.520;2022-08-21T01:33:57;18.13;90.79
70421;SHT31;57848;51.938;15.520;2022-08-21T01:36:23;18.10;90.93
70421;SHT31;57848;51.938;15.520;2022-08-21T01:38:49;18.20;91.08
70421;SHT31;57848;51.938;15.520;2022-08-21T01:41:15;18.21;91.17
70421;SHT31;57848;51.938;15.520;2022-08-21T01:43:42;18.20;91.36
70421;SHT31;57848;51.938;15.520;2022-08-21T01:46:08;18.30;91.36
70421;SHT31;57848;51.938;15.520;2022-08-21T01:48:34;18.35;91.35
70421;SHT31;57848;51.938;15.520;2022-08-21T01:50:59;18.35;91.48
70421;SHT31;57848;51.938;15.520;2022-08-21T01:53:25;18.38;91.46
70421;SHT31;57848;51.938;15.520;2022-08-21T01:55:51;18.45;91.46
70421;SHT31;57848;51.938;15.520;2022-08-21T01:58:16;18.43;91.64
70421;SHT31;57848;51.938;15.520;2022-08-21T02:00:41;18.47;91.65
70421;SHT31;57848;51.938;15.520;2022-08-21T02:03:07;18.49;91.78
70421;SHT31;57848;51.938;15.520;2022-08-21T02:05:32;18.47;91.88
70421;SHT31;57848;51.938;15.520;2022-08-21T02:07:57;18.44;92.14
70421;SHT31;57848;51.938;15.520;2022-08-21T02:10:28;18.51;91.95
70421;SHT31;57848;51.938;15.520;2022-08-21T02:12:55;18.52;92.03
70421;SHT31;57848;51.938;15.520;2022-08-21T02:15:22;18.52;91.81
70421;SHT31;57848;51.938;15.520;2022-08-21T02:17:50;18.52;91.46
70421;SHT31;57848;51.938;15.520;2022-08-21T02:20:20;18.49;91.59
70421;SHT31;57848;51.938;15.520;2022-08-21T02:22:45;18.43;91.76
70421;SHT31;57848;51.938;15.520;2022-08-21T02:25:11;18.40;91.43
70421;SHT31;57848;51.938;15.520;2022-08-21T02:27:41;18.37;91.21
70421;SHT31;57848;51.938;15.520;2022-08-21T02:30:11;18.24;91.28
70421;SHT31;57848;51.938;15.520;2022-08-21T02:32:37;18.30;91.28
70421;SHT31;57848;51.938;15.520;2022-08-21T02:35:03;18.26;91.21
70421;SHT31;57848;51.938;15.520;2022-08-21T02:37:29;18.21;91.32
70421;SHT31;57848;51.938;15.520;2022-08-21T02:39:54;18.13;91.30
70421;SHT31;57848;51.938;15.520;2022-08-21T02:42:19;18.07;91.21
70421;SHT31;57848;51.938;15.520;2022-08-21T02:44:44;18.08;91.22
70421;SHT31;57848;51.938;15.520;2022-08-21T02:47:10;18.03;91.23
70421;SHT31;57848;51.938;15.520;2022-08-21T02:49:35;17.98;91.31
70421;SHT31;57848;51.938;15.520;2022-08-21T02:52:00;18.07;91.23
70421;SHT31;57848;51.938;15.520;2022-08-21T02:54:26;18.00;91.53
70421;SHT31;57848;51.938;15.520;2022-08-21T02:56:51;17.98;91.53
70421;SHT31;57848;51.938;15.520;2022-08-21T02:59:16;18.01;91.67
70421;SHT31;57848;51.938;15.520;2022-08-21T03:01:43;17.97;91.64
70421;SHT31;57848;51.938;15.520;2022-08-21T03:04:09;17.93;91.63
70421;SHT31;57848;51.938;15.520;2022-08-21T03:06:34;17.97;91.33
70421;SHT31;57848;51.938;15.520;2022-08-21T03:08:59;17.90;91.03
70421;SHT31;57848;51.938;15.520;2022-08-21T03:11:25;17.89;90.38
70421;SHT31;57848;51.938;15.520;2022-08-21T03:13:52;17.79;90.58
70421;SHT31;57848;51.938;15.520;2022-08-21T03:16:17;17.80;90.77
70421;SHT31;57848;51.938;15.520;2022-08-21T03:18:44;17.62;89.88
70421;SHT31;57848;51.938;15.520;2022-08-21T03:21:10;17.66;90.12
70421;SHT31;57848;51.938;15.520;2022-08-21T03:23:35;17.58;89.87
70421;SHT31;57848;51.938;15.520;2022-08-21T03:26:01;17.40;90.00
70421;SHT31;57848;51.938;15.520;2022-08-21T03:28:26;17.43;90.10
70421;SHT31;57848;51.938;15.520;2022-08-21T03:30:52;17.36;89.60
70421;SHT31;57848;51.938;15.520;2022-08-21T03:33:18;17.22;88.64
70421;SHT31;57848;51.938;15.520;2022-08-21T03:35:47;17.19;88.61
70421;SHT31;57848;51.938;15.520;2022-08-21T03:38:13;17.22;88.79
70421;SHT31;57848;51.938;15.520;2022-08-21T03:40:38;17.11;88.30
70421;SHT31;57848;51.938;15.520;2022-08-21T03:43:04;17.07;88.30
70421;SHT31;57848;51.938;15.520;2022-08-21T03:45:29;17.04;88.06
70421;SHT31;57848;51.938;15.520;2022-08-21T03:47:58;16.98;88.73
70421;SHT31;57848;51.938;15.520;2022-08-21T03:50:27;16.95;88.06
70421;SHT31;57848;51.938;15.520;2022-08-21T03:52:55;16.92;88.29
70421;SHT31;57848;51.938;15.520;2022-08-21T03:55:20;16.81;88.47
70421;SHT31;57848;51.938;15.520;2022-08-21T03:57:46;16.88;88.76
70421;SHT31;57848;51.938;15.520;2022-08-21T04:00:14;16.81;88.97
70421;SHT31;57848;51.938;15.520;2022-08-21T04:02:40;16.73;88.78
70421;SHT31;57848;51.938;15.520;2022-08-21T04:05:06;16.78;89.23
70421;SHT31;57848;51.938;15.520;2022-08-21T04:07:32;16.80;88.91
70421;SHT31;57848;51.938;15.520;2022-08-21T04:09:57;16.80;89.15
70421;SHT31;57848;51.938;15.520;2022-08-21T04:12:22;16.87;88.81
70421;SHT31;57848;51.938;15.520;2022-08-21T04:14:49;16.76;88.81
70421;SHT31;57848;51.938;15.520;2022-08-21T04:17:17;16.76;89.25
70421;SHT31;57848;51.938;15.520;2022-08-21T04:19:42;16.78;89.03
70421;SHT31;57848;51.938;15.520;2022-08-21T04:22:07;16.71;88.66
70421;SHT31;57848;51.938;15.520;2022-08-21T04:24:33;16.67;89.08
70421;SHT31;57848;51.938;15.520;2022-08-21T04:26:58;16.71;89.12
70421;SHT31;57848;51.938;15.520;2022-08-21T04:29:23;16.69;88.74
70421;SHT31;57848;51.938;15.520;2022-08-21T04:31:48;16.66;88.69
70421;SHT31;57848;51.938;15.520;2022-08-21T04:34:14;16.61;88.86
70421;SHT31;57848;51.938;15.520;2022-08-21T04:36:39;16.71;88.83
70421;SHT31;57848;51.938;15.520;2022-08-21T04:39:04;16.64;88.87
70421;SHT31;57848;51.938;15.520;2022-08-21T04:41:30;16.63;88.84
70421;SHT31;57848;51.938;15.520;2022-08-21T04:43:55;16.64;88.78
70421;SHT31;57848;51.938;15.520;2022-08-21T04:46:22;16.66;88.71
70421;SHT31;57848;51.938;15.520;2022-08-21T04:48:47;16.64;88.22
70421;SHT31;57848;51.938;15.520;2022-08-21T04:51:20;16.63;88.51
70421;SHT31;57848;51.938;15.520;2022-08-21T04:53:51;16.63;88.52
70421;SHT31;57848;51.938;15.520;2022-08-21T04:56:25;16.61;88.89
70421;SHT31;57848;51.938;15.520;2022-08-21T04:58:53;16.66;88.62
70421;SHT31;57848;51.938;15.520;2022-08-21T05:01:22;16.70;88.26
70421;SHT31;57848;51.938;15.520;2022-08-21T05:03:52;16.63;88.51
70421;SHT31;57848;51.938;15.520;2022-08-21T05:06:20;16.60;88.28
70421;SHT31;57848;51.938;15.520;2022-08-21T05:08:47;16.63;88.03
70421;SHT31;57848;51.938;15.520;2022-08-21T05:11:14;16.60;88.45
70421;SHT31;57848;51.938;15.520;2022-08-21T05:13:39;16.60;88.09
70421;SHT31;57848;51.938;15.520;2022-08-21T05:16:06;16.64;87.85
70421;SHT31;57848;51.938;15.520;2022-08-21T05:18:31;16.56;87.75
70421;SHT31;57848;51.938;15.520;2022-08-21T05:20:57;16.59;88.12
70421;SHT31;57848;51.938;15.520;2022-08-21T05:23:22;16.66;87.73
70421;SHT31;57848;51.938;15.520;2022-08-21T05:25:48;16.57;87.70
70421;SHT31;57848;51.938;15.520;2022-08-21T05:28:14;16.59;88.06
70421;SHT31;57848;51.938;15.520;2022-08-21T05:30:39;16.63;87.67
70421;SHT31;57848;51.938;15.520;2022-08-21T05:33:06;16.59;87.40
70421;SHT31;57848;51.938;15.520;2022-08-21T05:35:32;16.64;87.68
70421;SHT31;57848;51.938;15.520;2022-08-21T05:37:59;16.64;87.82
70421;SHT31;57848;51.938;15.520;2022-08-21T05:40:25;16.60;88.33
70421;SHT31;57848;51.938;15.520;2022-08-21T05:42:51;16.67;87.57
70421;SHT31;57848;51.938;15.520;2022-08-21T05:45:16;16.66;88.12
70421;SHT31;57848;51.938;15.520;2022-08-21T05:47:42;16.66;88.00
70421;SHT31;57848;51.938;15.520;2022-08-21T05:50:08;16.64;88.16
70421;SHT31;57848;51.938;15.520;2022-08-21T05:52:33;16.69;88.10
70421;SHT31;57848;51.938;15.520;2022-08-21T05:54:58;16.63;88.69
70421;SHT31;57848;51.938;15.520;2022-08-21T05:57:24;16.73;88.62
70421;SHT31;57848;51.938;15.520;2022-08-21T05:59:50;16.74;88.67
70421;SHT31;57848;51.938;15.520;2022-08-21T06:02:20;16.76;88.88
70421;SHT31;57848;51.938;15.520;2022-08-21T06:04:45;16.76;88.76
70421;SHT31;57848;51.938;15.520;2022-08-21T06:07:11;16.76;88.86
70421;SHT31;57848;51.938;15.520;2022-08-21T06:09:36;16.81;89.06
70421;SHT31;57848;51.938;15.520;2022-08-21T06:12:12;16.92;88.84
70421;SHT31;57848;51.938;15.520;2022-08-21T06:14:40;16.95;89.32
70421;SHT31;57848;51.938;15.520;2022-08-21T06:17:08;16.95;89.07
70421;SHT31;57848;51.938;15.520;2022-08-21T06:19:34;17.00;88.33
70421;SHT31;57848;51.938;15.520;2022-08-21T06:21:59;17.08;88.60
70421;SHT31;57848;51.938;15.520;2022-08-21T06:24:26;17.11;88.62
70421;SHT31;57848;51.938;15.520;2022-08-21T06:26:51;17.08;88.60
70421;SHT31;57848;51.938;15.520;2022-08-21T06:29:17;17.10;88.63
70421;SHT31;57848;51.938;15.520;2022-08-21T06:31:43;17.07;88.41
70421;SHT31;57848;51.938;15.520;2022-08-21T06:34:09;17.10;88.65
70421;SHT31;57848;51.938;15.520;2022-08-21T06:36:34;17.08;88.80
70421;SHT31;57848;51.938;15.520;2022-08-21T06:39:00;17.10;88.92
70421;SHT31;57848;51.938;15.520;2022-08-21T06:41:25;17.12;88.80
70421;SHT31;57848;51.938;15.520;2022-08-21T06:43:51;17.21;88.67
70421;SHT31;57848;51.938;15.520;2022-08-21T06:46:16;17.08;88.36
70421;SHT31;57848;51.938;15.520;2022-08-21T06:48:42;17.07;88.44
70421;SHT31;57848;51.938;15.520;2022-08-21T06:51:07;17.10;88.84
70421;SHT31;57848;51.938;15.520;2022-08-21T06:53:33;17.21;88.37
70421;SHT31;57848;51.938;15.520;2022-08-21T06:55:59;17.18;88.09
70421;SHT31;57848;51.938;15.520;2022-08-21T06:58:24;17.15;88.13
70421;SHT31;57848;51.938;15.520;2022-08-21T07:00:50;17.22;88.24
70421;SHT31;57848;51.938;15.520;2022-08-21T07:03:25;17.24;87.75
70421;SHT31;57848;51.938;15.520;2022-08-21T07:05:53;17.27;88.14
70421;SHT31;57848;51.938;15.520;2022-08-21T07:08:19;17.27;87.92
70421;SHT31;57848;51.938;15.520;2022-08-21T07:10:45;17.28;87.79
70421;SHT31;57848;51.938;15.520;2022-08-21T07:13:11;17.32;88.24
70421;SHT31;57848;51.938;15.520;2022-08-21T07:15:36;17.38;87.75
70421;SHT31;57848;51.938;15.520;2022-08-21T07:18:02;17.34;87.63
70421;SHT31;57848;51.938;15.520;2022-08-21T07:20:29;17.43;87.65
70421;SHT31;57848;51.938;15.520;2022-08-21T07:22:56;17.48;87.33
70421;SHT31;57848;51.938;15.520;2022-08-21T07:25:23;17.40;86.82
70421;SHT31;57848;51.938;15.520;2022-08-21T07:27:49;17.38;87.41
70421;SHT31;57848;51.938;15.520;2022-08-21T07:30:14;17.53;87.11
70421;SHT31;57848;51.938;15.520;2022-08-21T07:32:39;17.56;86.95
70421;SHT31;57848;51.938;15.520;2022-08-21T07:35:05;17.52;87.45
70421;SHT31;57848;51.938;15.520;2022-08-21T07:37:31;17.58;87.66
70421;SHT31;57848;51.938;15.520;2022-08-21T07:39:56;17.58;87.22
70421;SHT31;57848;51.938;15.520;2022-08-21T07:42:21;17.52;87.33
70421;SHT31;57848;51.938;15.520;2022-08-21T07:44:47;17.69;87.22
70421;SHT31;57848;51.938;15.520;2022-08-21T07:47:12;17.65;87.44
70421;SHT31;57848;51.938;15.520;2022-08-21T07:49:37;17.63;87.61
70421;SHT31;57848;51.938;15.520;2022-08-21T07:52:03;17.72;87.68
70421;SHT31;57848;51.938;15.520;2022-08-21T07:54:28;17.72;86.98
70421;SHT31;57848;51.938;15.520;2022-08-21T07:56:54;17.72;87.27
70421;SHT31;57848;51.938;15.520;2022-08-21T07:59:19;17.80;87.04
70421;SHT31;57848;51.938;15.520;2022-08-21T08:01:45;17.83;86.78
70421;SHT31;57848;51.938;15.520;2022-08-21T08:04:10;17.87;86.47
70421;SHT31;57848;51.938;15.520;2022-08-21T08:06:35;17.86;86.95
70421;SHT31;57848;51.938;15.520;2022-08-21T08:09:01;17.86;87.13
70421;SHT31;57848;51.938;15.520;2022-08-21T08:11:29;17.77;86.79
70421;SHT31;57848;51.938;15.520;2022-08-21T08:13:54;17.89;86.63
70421;SHT31;57848;51.938;15.520;2022-08-21T08:16:21;17.80;87.30
70421;SHT31;57848;51.938;15.520;2022-08-21T08:18:47;17.91;86.92
70421;SHT31;57848;51.938;15.520;2022-08-21T08:21:13;17.89;86.84
70421;SHT31;57848;51.938;15.520;2022-08-21T08:23:38;17.90;87.29
70421;SHT31;57848;51.938;15.520;2022-08-21T08:26:04;18.03;86.51
70421;SHT31;57848;51.938;15.520;2022-08-21T08:28:30;18.00;87.02
70421;SHT31;57848;51.938;15.520;2022-08-21T08:30:57;18.00;87.08
70421;SHT31;57848;51.938;15.520;2022-08-21T08:33:22;18.07;86.97
70421;SHT31;57848;51.938;15.520;2022-08-21T08:35:49;18.07;86.73
70421;SHT31;57848;51.938;15.520;2022-08-21T08:38:16;18.10;87.12
70421;SHT31;57848;51.938;15.520;2022-08-21T08:40:55;18.03;86.90
70421;SHT31;57848;51.938;15.520;2022-08-21T08:43:25;18.11;86.74
70421;SHT31;57848;51.938;15.520;2022-08-21T08:45:53;18.13;86.66
70421;SHT31;57848;51.938;15.520;2022-08-21T08:48:53;18.13;86.65
70421;SHT31;57848;51.938;15.520;2022-08-21T08:51:25;18.16;86.77
70421;SHT31;57848;51.938;15.520;2022-08-21T08:54:06;18.16;87.39
70421;SHT31;57848;51.938;15.520;2022-08-21T08:56:34;18.18;86.87
70421;SHT31;57848;51.938;15.520;2022-08-21T08:59:26;18.26;85.85
70421;SHT31;57848;51.938;15.520;2022-08-21T09:01:49;18.24;86.38
70421;SHT31;57848;51.938;15.520;2022-08-21T09:04:21;18.31;86.27
70421;SHT31;57848;51.938;15.520;2022-08-21T09:06:58;18.40;86.40
70421;SHT31;57848;51.938;15.520;2022-08-21T09:12:33;18.43;86.32
70421;SHT31;57848;51.938;15.520;2022-08-21T09:18:03;18.48;86.28
70421;SHT31;57848;51.938;15.520;2022-08-21T09:20:41;18.57;86.11
70421;SHT31;57848;51.938;15.520;2022-08-21T09:23:28;18.57;85.44
70421;SHT31;57848;51.938;15.520;2022-08-21T09:25:59;18.54;86.10
70421;SHT31;57848;51.938;15.520;2022-08-21T09:28:31;18.47;86.21
70421;SHT31;57848;51.938;15.520;2022-08-21T09:30:56;18.47;85.96
70421;SHT31;57848;51.938;15.520;2022-08-21T09:33:28;18.51;85.77
70421;SHT31;57848;51.938;15.520;2022-08-21T09:35:55;18.49;85.98
70421;SHT31;57848;51.938;15.520;2022-08-21T09:38:32;18.57;85.40
70421;SHT31;57848;51.938;15.520;2022-08-21T09:43:29;18.49;85.18
70421;SHT31;57848;51.938;15.520;2022-08-21T09:46:11;18.58;84.74
70421;SHT31;57848;51.938;15.520;2022-08-21T09:48:46;18.62;85.05
70421;SHT31;57848;51.938;15.520;2022-08-21T09:51:16;18.49;84.25
70421;SHT31;57848;51.938;15.520;2022-08-21T09:53:45;18.59;84.22
70421;SHT31;57848;51.938;15.520;2022-08-21T09:56:24;18.68;84.09
70421;SHT31;57848;51.938;15.520;2022-08-21T09:59:19;18.59;84.24
70421;SHT31;57848;51.938;15.520;2022-08-21T10:01:48;18.65;84.87
70421;SHT31;57848;51.938;15.520;2022-08-21T10:04:14;18.69;85.16
70421;SHT31;57848;51.938;15.520;2022-08-21T10:06:40;18.69;83.97
70421;SHT31;57848;51.938;15.520;2022-08-21T10:09:17;18.76;83.28
70421;SHT31;57848;51.938;15.520;2022-08-21T10:11:50;18.69;83.91
70421;SHT31;57848;51.938;15.520;2022-08-21T10:19:48;18.79;84.42
70421;SHT31;57848;51.938;15.520;2022-08-21T10:24:52;18.76;85.05
70421;SHT31;57848;51.938;15.520;2022-08-21T10:27:33;18.89;83.65
70421;SHT31;57848;51.938;15.520;2022-08-21T10:30:22;18.88;84.10
70421;SHT31;57848;51.938;15.520;2022-08-21T10:32:56;18.79;84.82
70421;SHT31;57848;51.938;15.520;2022-08-21T10:35:33;18.89;84.52
70421;SHT31;57848;51.938;15.520;2022-08-21T10:40:43;18.99;83.42
70421;SHT31;57848;51.938;15.520;2022-08-21T10:46:09;19.26;84.23
70421;SHT31;57848;51.938;15.520;2022-08-21T10:48:49;19.28;83.67
70421;SHT31;57848;51.938;15.520;2022-08-21T10:54:35;19.34;84.12
70421;SHT31;57848;51.938;15.520;2022-08-21T10:57:09;19.31;84.53
70421;SHT31;57848;51.938;15.520;2022-08-21T10:59:51;19.37;83.12
70421;SHT31;57848;51.938;15.520;2022-08-21T11:05:33;19.30;82.72
70421;SHT31;57848;51.938;15.520;2022-08-21T11:08:10;19.16;83.20
70421;SHT31;57848;51.938;15.520;2022-08-21T11:10:46;19.15;84.17
70421;SHT31;57848;51.938;15.520;2022-08-21T11:13:40;19.10;83.53
70421;SHT31;57848;51.938;15.520;2022-08-21T11:16:22;19.02;84.21
70421;SHT31;57848;51.938;15.520;2022-08-21T11:21:45;19.05;85.00
70421;SHT31;57848;51.938;15.520;2022-08-21T11:24:31;19.16;84.62
70421;SHT31;57848;51.938;15.520;2022-08-21T11:27:00;19.15;84.42
70421;SHT31;57848;51.938;15.520;2022-08-21T11:29:32;19.27;84.97
70421;SHT31;57848;51.938;15.520;2022-08-21T11:40:41;19.49;83.36
70421;SHT31;57848;51.938;15.520;2022-08-21T11:45:55;19.24;82.86
70421;SHT31;57848;51.938;15.520;2022-08-21T11:51:18;19.41;83.09
70421;SHT31;57848;51.938;15.520;2022-08-21T11:53:51;19.49;83.24
70421;SHT31;57848;51.938;15.520;2022-08-21T11:56:23;19.50;83.05
70421;SHT31;57848;51.938;15.520;2022-08-21T11:58:55;19.54;82.62
70421;SHT31;57848;51.938;15.520;2022-08-21T12:01:25;19.49;81.60
70421;SHT31;57848;51.938;15.520;2022-08-21T12:04:07;19.53;82.24
70421;SHT31;57848;51.938;15.520;2022-08-21T12:06:39;19.51;82.35
70421;SHT31;57848;51.938;15.520;2022-08-21T12:09:30;19.64;82.19
70421;SHT31;57848;51.938;15.520;2022-08-21T12:12:27;19.58;82.25
70421;SHT31;57848;51.938;15.520;2022-08-21T12:17:40;19.54;83.63
70421;SHT31;57848;51.938;15.520;2022-08-21T12:25:44;19.49;81.59
70421;SHT31;57848;51.938;15.520;2022-08-21T12:28:21;19.51;81.63
70421;SHT31;57848;51.938;15.520;2022-08-21T12:30:48;19.53;81.42
70421;SHT31;57848;51.938;15.520;2022-08-21T12:33:26;19.50;81.48
70421;SHT31;57848;51.938;15.520;2022-08-21T12:36:06;19.58;81.45
70421;SHT31;57848;51.938;15.520;2022-08-21T12:38:39;19.63;81.00
70421;SHT31;57848;51.938;15.520;2022-08-21T12:41:15;19.65;80.84
70421;SHT31;57848;51.938;15.520;2022-08-21T12:43:44;19.63;80.22
70421;SHT31;57848;51.938;15.520;2022-08-21T12:46:17;19.67;79.86
70421;SHT31;57848;51.938;15.520;2022-08-21T12:48:57;19.67;80.63
70421;SHT31;57848;51.938;15.520;2022-08-21T12:51:32;19.67;81.22
70421;SHT31;57848;51.938;15.520;2022-08-21T12:53:59;19.64;80.54
70421;SHT31;57848;51.938;15.520;2022-08-21T12:56:28;19.65;79.90
70421;SHT31;57848;51.938;15.520;2022-08-21T12:59:04;19.54;80.66
70421;SHT31;57848;51.938;15.520;2022-08-21T13:01:46;19.60;81.17
70421;SHT31;57848;51.938;15.520;2022-08-21T13:04:18;19.65;81.71
70421;SHT31;57848;51.938;15.520;2022-08-21T13:06:47;19.57;81.79
70421;SHT31;57848;51.938;15.520;2022-08-21T13:09:15;19.61;82.22
70421;SHT31;57848;51.938;15.520;2022-08-21T13:11:44;19.46;82.35
70421;SHT31;57848;51.938;15.520;2022-08-21T13:14:28;19.34;81.91
70421;SHT31;57848;51.938;15.520;2022-08-21T13:16:55;19.33;82.46
70421;SHT31;57848;51.938;15.520;2022-08-21T13:19:22;19.23;83.20
70421;SHT31;57848;51.938;15.520;2022-08-21T13:21:48;19.24;83.56
70421;SHT31;57848;51.938;15.520;2022-08-21T13:24:29;19.23;83.80
70421;SHT31;57848;51.938;15.520;2022-08-21T13:26:55;19.15;84.06
70421;SHT31;57848;51.938;15.520;2022-08-21T13:29:26;18.99;84.64
70421;SHT31;57848;51.938;15.520;2022-08-21T13:31:55;19.12;84.36
70421;SHT31;57848;51.938;15.520;2022-08-21T13:34:23;19.17;84.51
70421;SHT31;57848;51.938;15.520;2022-08-21T13:36:52;19.13;84.26
70421;SHT31;57848;51.938;15.520;2022-08-21T13:39:20;19.19;84.41
70421;SHT31;57848;51.938;15.520;2022-08-21T13:41:48;19.22;84.19
70421;SHT31;57848;51.938;15.520;2022-08-21T13:44:41;19.24;83.75
70421;SHT31;57848;51.938;15.520;2022-08-21T13:47:09;19.36;83.51
70421;SHT31;57848;51.938;15.520;2022-08-21T13:49:40;19.31;82.60
70421;SHT31;57848;51.938;15.520;2022-08-21T13:52:22;19.33;82.19
70421;SHT31;57848;51.938;15.520;2022-08-21T13:54:59;19.28;82.45
70421;SHT31;57848;51.938;15.520;2022-08-21T13:57:31;19.36;82.33
70421;SHT31;57848;51.938;15.520;2022-08-21T14:00:19;19.16;81.89
70421;SHT31;57848;51.938;15.520;2022-08-21T14:02:49;19.36;81.81
70421;SHT31;57848;51.938;15.520;2022-08-21T14:05:22;19.40;82.52
70421;SHT31;57848;51.938;15.520;2022-08-21T14:07:50;19.50;82.65
70421;SHT31;57848;51.938;15.520;2022-08-21T14:10:23;19.40;82.09
70421;SHT31;57848;51.938;15.520;2022-08-21T14:12:51;19.41;82.11
70421;SHT31;57848;51.938;15.520;2022-08-21T14:15:23;19.43;82.77
70421;SHT31;57848;51.938;15.520;2022-08-21T14:17:50;19.51;82.91
70421;SHT31;57848;51.938;15.520;2022-08-21T14:20:31;19.60;82.61
70421;SHT31;57848;51.938;15.520;2022-08-21T14:22:57;19.56;82.35
70421;SHT31;57848;51.938;15.520;2022-08-21T14:27:58;19.68;82.19
70421;SHT31;57848;51.938;15.520;2022-08-21T14:32:49;19.79;81.08
70421;SHT31;57848;51.938;15.520;2022-08-21T14:35:14;19.74;81.70
70421;SHT31;57848;51.938;15.520;2022-08-21T14:37:43;19.79;82.15
70421;SHT31;57848;51.938;15.520;2022-08-21T14:40:09;19.84;81.89
70421;SHT31;57848;51.938;15.520;2022-08-21T14:42:35;19.95;81.38
70421;SHT31;57848;51.938;15.520;2022-08-21T14:45:05;20.02;81.86
70421;SHT31;57848;51.938;15.520;2022-08-21T14:47:32;20.06;80.63
70421;SHT31;57848;51.938;15.520;2022-08-21T14:49:57;20.24;80.62
70421;SHT31;57848;51.938;15.520;2022-08-21T14:52:23;20.30;80.17
70421;SHT31;57848;51.938;15.520;2022-08-21T14:54:49;20.39;79.49
70421;SHT31;57848;51.938;15.520;2022-08-21T14:57:14;20.53;77.71
70421;SHT31;57848;51.938;15.520;2022-08-21T14:59:40;20.66;78.83
70421;SHT31;57848;51.938;15.520;2022-08-21T15:02:07;20.86;78.54
70421;SHT31;57848;51.938;15.520;2022-08-21T15:04:33;20.95;76.56
70421;SHT31;57848;51.938;15.520;2022-08-21T15:06:59;21.00;75.34
70421;SHT31;57848;51.938;15.520;2022-08-21T15:09:24;21.04;75.31
70421;SHT31;57848;51.938;15.520;2022-08-21T15:11:52;21.08;74.98
70421;SHT31;57848;51.938;15.520;2022-08-21T15:14:20;21.04;74.78
70421;SHT31;57848;51.938;15.520;2022-08-21T15:16:47;20.90;74.74
70421;SHT31;57848;51.938;15.520;2022-08-21T15:19:12;20.97;74.25
70421;SHT31;57848;51.938;15.520;2022-08-21T15:21:38;20.95;73.64
70421;SHT31;57848;51.938;15.520;2022-08-21T15:24:03;20.76;73.97
70421;SHT31;57848;51.938;15.520;2022-08-21T15:26:28;20.80;73.89
70421;SHT31;57848;51.938;15.520;2022-08-21T15:28:54;20.81;74.40
70421;SHT31;57848;51.938;15.520;2022-08-21T15:31:19;20.83;72.92
70421;SHT31;57848;51.938;15.520;2022-08-21T15:33:45;20.88;72.40
70421;SHT31;57848;51.938;15.520;2022-08-21T15:36:10;21.21;72.40
70421;SHT31;57848;51.938;15.520;2022-08-21T15:38:35;21.46;72.58
70421;SHT31;57848;51.938;15.520;2022-08-21T15:41:03;21.71;70.84
70421;SHT31;57848;51.938;15.520;2022-08-21T15:43:32;21.96;71.13
70421;SHT31;57848;51.938;15.520;2022-08-21T15:45:59;22.13;70.78
70421;SHT31;57848;51.938;15.520;2022-08-21T15:48:24;22.13;69.39
70421;SHT31;57848;51.938;15.520;2022-08-21T15:50:50;22.31;68.97
70421;SHT31;57848;51.938;15.520;2022-08-21T15:53:15;22.21;66.69
70421;SHT31;57848;51.938;15.520;2022-08-21T15:55:41;22.09;66.87
70421;SHT31;57848;51.938;15.520;2022-08-21T15:58:06;22.10;66.33
70421;SHT31;57848;51.938;15.520;2022-08-21T16:00:35;22.13;65.43
70421;SHT31;57848;51.938;15.520;2022-08-21T16:03:03;22.16;66.02
70421;SHT31;57848;51.938;15.520;2022-08-21T16:05:29;22.12;65.46
70421;SHT31;57848;51.938;15.520;2022-08-21T16:07:54;21.88;63.88
70421;SHT31;57848;51.938;15.520;2022-08-21T16:10:21;21.65;65.57
70421;SHT31;57848;51.938;15.520;2022-08-21T16:12:51;21.42;64.39
70421;SHT31;57848;51.938;15.520;2022-08-21T16:15:18;21.28;64.95
70421;SHT31;57848;51.938;15.520;2022-08-21T16:17:45;21.17;64.61
70421;SHT31;57848;51.938;15.520;2022-08-21T16:20:18;21.03;64.34
70421;SHT31;57848;51.938;15.520;2022-08-21T16:22:44;21.01;64.34